Location Littleton, CO, US

ob KCOLITTL9 240900Z AUTO 15000KT SCT060 00/M03 A3061 RMK SLPNO 

2017.10.24 0900 UTC
Wind from the SE (149 degrees) at Calm MPH ( KT) gusting to 0.0 MPH (0 KT)
Visibility    Mile(s)
Sky Conditions  partly cloudy
Temperature 31.70 F (-0 C)
Dew Point 26.55 F (-3 C)
Relative Humidity 81%
Pressure   30.61 in. Hg (1037 hPa)
Rain  0.00 in.
Daily Rain  in.

Station Name  NDS Weather
Longitude, Latitude  -105.097859501839, 39.5649194844331
Elevation 5620
Station URL http://weather.mfc-cs.com
Software Type VWS V15.00